Time;durP1;ratioP1;P1;durP2;ratioP2;P2;SDS_P1;SDS_P2;PMS_P1;PMS_P2;Temp;Humidity;BMP_temperature;BMP_pressure;BME280_temperature;BME280_humidity;BME280_pressure;Samples;Min_cycle;Max_cycle;Signal;HPM_P1;HPM_P2
2022/03/22 00:00:43;;;;;;;17.27;11.30;;;4.60;99.90;;;;;;5013000;28;20640;-83
2022/03/22 00:03:08;;;;;;;18.13;11.13;;;4.60;99.90;;;;;;5014431;28;20269;-83
2022/03/22 00:05:37;;;;;;;18.23;11.40;;;4.60;99.90;;;;;;5013316;28;20180;-84
2022/03/22 00:08:03;;;;;;;18.80;11.87;;;4.60;99.90;;;;;;5013216;28;20270;-81
2022/03/22 00:10:29;;;;;;;15.73;11.27;;;4.60;99.90;;;;;;5012989;28;20286;-84
2022/03/22 00:12:54;;;;;;;16.17;11.23;;;4.40;99.90;;;;;;5013614;28;20187;-84
2022/03/22 00:15:20;;;;;;;19.57;11.67;;;4.50;99.90;;;;;;5013260;28;20183;-84
2022/03/22 00:17:46;;;;;;;19.77;11.57;;;4.40;99.90;;;;;;5014288;28;20171;-83
2022/03/22 00:20:12;;;;;;;20.47;11.30;;;4.40;99.90;;;;;;5014352;28;20187;-83
2022/03/22 00:22:38;;;;;;;14.43;10.20;;;4.30;99.90;;;;;;5016547;28;20571;-84
2022/03/22 00:25:05;;;;;;;14.40;10.63;;;4.30;99.90;;;;;;5017082;28;20653;-84
2022/03/22 00:28:13;;;;;;;18.13;10.33;;;4.20;99.90;;;;;;5016932;28;20277;-84
2022/03/22 00:30:25;;;;;;;15.13;10.67;;;4.10;99.90;;;;;;5012507;28;20191;-84
2022/03/22 00:32:53;;;;;;;14.40;10.87;;;4.00;99.90;;;;;;5016530;28;20180;-84
2022/03/22 00:35:24;;;;;;;17.03;11.33;;;4.00;99.90;;;;;;5016603;28;20190;-83
2022/03/22 00:37:53;;;;;;;16.60;11.80;;;4.00;99.90;;;;;;5016717;28;20185;-83
2022/03/22 00:40:21;;;;;;;20.07;12.33;;;4.10;99.90;;;;;;5016814;28;20172;-84
2022/03/22 00:42:48;;;;;;;15.43;11.23;;;4.00;99.90;;;;;;5016110;28;20207;-82
2022/03/22 00:45:16;;;;;;;16.83;11.63;;;3.90;99.90;;;;;;5016350;28;20207;-82
2022/03/22 00:47:45;;;;;;;15.73;11.40;;;3.90;99.90;;;;;;5017104;28;20168;-81
2022/03/22 00:50:13;;;;;;;17.80;12.63;;;3.90;99.90;;;;;;5016064;28;20638;-82
2022/03/22 00:52:39;;;;;;;17.50;12.07;;;3.90;99.90;;;;;;5017379;28;20171;-81
2022/03/22 00:55:05;;;;;;;21.80;11.20;;;3.90;99.90;;;;;;5016171;28;20250;-81
2022/03/22 00:57:34;;;;;;;16.53;11.23;;;3.90;99.90;;;;;;5015970;28;20259;-82
2022/03/22 01:00:06;;;;;;;20.43;12.80;;;3.90;99.90;;;;;;5015919;28;20179;-83
2022/03/22 01:02:34;;;;;;;15.77;10.73;;;3.80;99.90;;;;;;5016802;28;20281;-84
2022/03/22 01:07:35;;;;;;;16.03;11.13;;;3.90;99.90;;;;;;5130439;23;20235;-86
2022/03/22 01:10:05;;;;;;;15.93;11.60;;;3.90;99.90;;;;;;4976937;28;20180;-85
2022/03/22 01:12:35;;;;;;;18.50;11.13;;;3.90;99.90;;;;;;4994455;28;20652;-85
2022/03/22 01:15:07;;;;;;;21.10;12.03;;;3.80;99.90;;;;;;4996390;28;20610;-86
2022/03/22 01:17:33;;;;;;;16.37;11.80;;;3.70;99.90;;;;;;4997244;28;20210;-87
2022/03/22 01:20:01;;;;;;;18.33;11.37;;;3.80;99.90;;;;;;4997666;28;20222;-86
2022/03/22 01:22:27;;;;;;;19.80;11.53;;;3.70;99.90;;;;;;4997284;28;20208;-85
2022/03/22 01:24:53;;;;;;;19.17;12.30;;;3.70;99.90;;;;;;4997398;28;20168;-85
2022/03/22 01:27:21;;;;;;;17.17;11.67;;;3.70;99.90;;;;;;4995882;28;20194;-86
2022/03/22 01:29:48;;;;;;;17.60;11.73;;;3.70;99.90;;;;;;4997383;28;20184;-86
2022/03/22 01:32:13;;;;;;;16.90;12.17;;;3.50;99.90;;;;;;4996765;28;20548;-86
2022/03/22 01:34:39;;;;;;;17.63;12.50;;;3.60;99.90;;;;;;4997367;28;20215;-86
2022/03/22 01:37:05;;;;;;;16.47;11.63;;;3.60;99.90;;;;;;4996738;28;20273;-86
2022/03/22 01:39:31;;;;;;;15.73;12.47;;;3.50;99.90;;;;;;4997139;28;20168;-86
2022/03/22 01:41:57;;;;;;;17.97;12.23;;;3.40;99.90;;;;;;4996808;28;20286;-86
2022/03/22 01:44:25;;;;;;;16.87;12.17;;;3.30;99.90;;;;;;4997119;28;20279;-87
2022/03/22 01:46:54;;;;;;;16.93;12.33;;;3.30;99.90;;;;;;4996962;28;20254;-85
2022/03/22 01:49:20;;;;;;;17.70;12.53;;;3.10;99.90;;;;;;4996916;28;20206;-86
2022/03/22 01:51:48;;;;;;;20.07;12.37;;;3.00;99.90;;;;;;4997017;28;20184;-86
2022/03/22 01:54:17;;;;;;;19.87;12.90;;;3.00;99.90;;;;;;4996953;28;20598;-86
2022/03/22 01:56:43;;;;;;;19.67;13.23;;;3.00;99.90;;;;;;4996919;28;20254;-86
2022/03/22 01:59:08;;;;;;;17.13;12.00;;;2.90;99.90;;;;;;4996742;28;20565;-86
2022/03/22 02:07:06;;;;;;;17.57;12.80;;;3.00;99.90;;;;;;4996420;28;20253;-85
2022/03/22 02:09:32;;;;;;;20.63;12.90;;;3.10;99.90;;;;;;4996553;28;20177;-86
2022/03/22 02:11:58;;;;;;;16.80;12.23;;;3.00;99.90;;;;;;4996511;28;20626;-86
2022/03/22 02:14:24;;;;;;;18.00;13.00;;;3.00;99.90;;;;;;4995436;28;20187;-86
2022/03/22 02:16:50;;;;;;;20.07;12.50;;;2.90;99.90;;;;;;4996102;28;20176;-85
2022/03/22 02:19:16;;;;;;;24.23;13.20;;;2.90;99.90;;;;;;4996366;28;20182;-86
2022/03/22 02:21:42;;;;;;;20.43;12.73;;;2.80;99.90;;;;;;4996177;28;20210;-85
2022/03/22 02:24:08;;;;;;;20.33;12.53;;;2.90;99.90;;;;;;4995223;28;20628;-86
2022/03/22 02:26:36;;;;;;;16.53;11.53;;;2.90;99.90;;;;;;4996071;28;20687;-86
2022/03/22 02:29:03;;;;;;;17.20;11.87;;;2.90;99.90;;;;;;4996084;28;20176;-86
2022/03/22 02:31:30;;;;;;;18.50;13.10;;;2.90;99.90;;;;;;4995984;28;20201;-86
2022/03/22 02:33:57;;;;;;;18.57;12.50;;;2.80;99.90;;;;;;4995973;28;20173;-85
2022/03/22 02:36:23;;;;;;;18.87;13.27;;;2.60;99.90;;;;;;4994808;28;20175;-86
2022/03/22 02:38:50;;;;;;;18.17;12.70;;;2.60;99.90;;;;;;4995717;28;20174;-86
2022/03/22 02:41:20;;;;;;;18.70;12.17;;;2.60;99.90;;;;;;4994796;28;20176;-87
2022/03/22 02:43:48;;;;;;;17.27;12.40;;;2.70;99.90;;;;;;4994449;28;20215;-86
2022/03/22 02:46:15;;;;;;;18.43;12.43;;;2.70;99.90;;;;;;4995787;28;20182;-86
2022/03/22 02:48:41;;;;;;;21.23;12.87;;;2.60;99.90;;;;;;4994977;28;20566;-85
2022/03/22 02:51:08;;;;;;;24.03;13.17;;;2.60;99.90;;;;;;4995973;28;20158;-86
2022/03/22 02:53:34;;;;;;;17.03;12.70;;;2.50;99.90;;;;;;4995501;28;20577;-86
2022/03/22 02:56:01;;;;;;;19.70;13.00;;;2.50;99.90;;;;;;4995628;28;20222;-86
2022/03/22 02:58:27;;;;;;;26.53;12.57;;;2.40;99.90;;;;;;4995650;28;20198;-86
2022/03/22 03:00:53;;;;;;;17.97;12.37;;;2.40;99.90;;;;;;4995730;28;20178;-87
2022/03/22 03:03:22;;;;;;;18.90;12.13;;;2.50;99.90;;;;;;4995237;28;20217;-85
2022/03/22 03:05:51;;;;;;;22.70;13.53;;;2.50;99.90;;;;;;4995758;28;20178;-86
2022/03/22 03:08:18;;;;;;;19.67;12.73;;;2.40;99.90;;;;;;4994470;28;20219;-87
2022/03/22 03:10:45;;;;;;;21.27;12.53;;;2.40;99.90;;;;;;4995255;28;20508;-87
2022/03/22 03:13:11;;;;;;;19.73;11.93;;;2.40;99.90;;;;;;4994482;28;20181;-85
2022/03/22 03:15:37;;;;;;;19.40;12.50;;;2.40;99.90;;;;;;4994291;28;20554;-86
2022/03/22 03:18:03;;;;;;;19.83;12.53;;;2.20;99.90;;;;;;4995371;28;20181;-86
2022/03/22 03:20:30;;;;;;;16.93;12.60;;;2.20;99.90;;;;;;4995650;28;20196;-87
2022/03/22 03:22:56;;;;;;;20.47;12.87;;;2.20;99.90;;;;;;4993940;28;20220;-86
2022/03/22 03:25:22;;;;;;;18.80;12.10;;;2.20;99.90;;;;;;4993744;28;20195;-86
2022/03/22 03:27:48;;;;;;;17.90;12.73;;;2.30;99.90;;;;;;4995347;28;20176;-86
2022/03/22 03:30:14;;;;;;;17.03;12.37;;;2.30;99.90;;;;;;4995233;28;20172;-86
2022/03/22 03:32:39;;;;;;;16.23;12.50;;;2.20;99.90;;;;;;4995347;28;20268;-87
2022/03/22 03:35:05;;;;;;;17.93;12.40;;;2.20;99.90;;;;;;4994205;28;20191;-86
2022/03/22 03:37:35;;;;;;;20.90;12.93;;;2.10;99.90;;;;;;4993899;28;20242;-85
2022/03/22 03:40:02;;;;;;;17.87;12.50;;;2.10;99.90;;;;;;4995161;28;20176;-86
2022/03/22 03:42:27;;;;;;;18.27;12.90;;;2.00;99.90;;;;;;4995135;28;20203;-85
2022/03/22 03:47:37;;;;;;;18.43;11.73;;;2.00;99.90;;;;;;4995436;28;20260;-86
2022/03/22 03:50:05;;;;;;;19.83;11.73;;;2.00;99.90;;;;;;4995111;28;20252;-86
2022/03/22 03:52:35;;;;;;;17.40;12.70;;;2.00;99.90;;;;;;4995161;28;20156;-85
2022/03/22 03:55:05;;;;;;;16.97;12.53;;;2.00;99.90;;;;;;4994775;28;20188;-86
2022/03/22 03:57:32;;;;;;;18.73;12.63;;;2.00;99.90;;;;;;4997310;28;20677;-86
2022/03/22 03:59:58;;;;;;;19.07;12.70;;;1.90;99.90;;;;;;4999064;28;20623;-86
2022/03/22 04:02:24;;;;;;;23.00;12.77;;;1.90;99.90;;;;;;4998811;28;20233;-87
2022/03/22 04:04:53;;;;;;;21.27;12.53;;;2.00;99.90;;;;;;4998948;28;20264;-86
2022/03/22 04:07:23;;;;;;;20.50;12.13;;;1.90;99.90;;;;;;4998676;28;20227;-87
2022/03/22 04:09:50;;;;;;;18.83;12.50;;;1.80;99.90;;;;;;4998551;28;20197;-86
2022/03/22 04:12:16;;;;;;;19.20;11.83;;;1.80;99.90;;;;;;4998855;28;20225;-86
2022/03/22 04:14:42;;;;;;;23.00;13.57;;;1.80;99.90;;;;;;4998690;28;20169;-87
2022/03/22 04:17:08;;;;;;;18.33;12.37;;;1.90;99.90;;;;;;4998846;28;20564;-85
2022/03/22 04:19:35;;;;;;;18.50;12.73;;;1.80;99.90;;;;;;4998697;28;20252;-86
2022/03/22 04:22:02;;;;;;;21.90;13.43;;;1.70;99.90;;;;;;4998538;28;20606;-86
2022/03/22 04:24:28;;;;;;;21.63;13.10;;;1.70;99.90;;;;;;4998232;28;20291;-86
2022/03/22 04:26:55;;;;;;;17.77;12.30;;;1.70;99.90;;;;;;4997485;28;20268;-86
2022/03/22 04:34:49;;;;;;;20.30;12.47;;;1.80;99.90;;;;;;4998200;28;20180;-86
2022/03/22 04:37:16;;;;;;;16.53;12.17;;;1.80;99.90;;;;;;4998228;28;20180;-86
2022/03/22 04:39:44;;;;;;;17.37;12.57;;;1.80;99.90;;;;;;4998000;28;20172;-86
2022/03/22 04:42:10;;;;;;;19.57;12.87;;;1.90;99.90;;;;;;4998046;28;20196;-86
2022/03/22 04:44:37;;;;;;;19.37;12.70;;;1.80;99.90;;;;;;4998226;28;20184;-87
2022/03/22 04:47:03;;;;;;;19.43;13.07;;;1.80;99.90;;;;;;4998186;28;20175;-83
2022/03/22 04:49:30;;;;;;;18.73;12.33;;;1.70;99.90;;;;;;4998015;28;20187;-87
2022/03/22 04:57:26;;;;;;;21.67;13.03;;;1.50;99.90;;;;;;4997992;28;20494;-87
2022/03/22 04:59:51;;;;;;;18.47;12.30;;;1.50;99.90;;;;;;4997684;28;20175;-86
2022/03/22 05:02:17;;;;;;;17.37;12.47;;;1.50;99.90;;;;;;4997943;28;20203;-87
2022/03/22 05:04:43;;;;;;;18.80;12.70;;;1.50;99.90;;;;;;4996949;28;20278;-86
2022/03/22 05:07:09;;;;;;;17.93;12.33;;;1.50;99.90;;;;;;4996122;28;20227;-86
2022/03/22 05:09:35;;;;;;;21.97;13.27;;;1.50;99.90;;;;;;4997729;28;20187;-87
2022/03/22 05:12:02;;;;;;;18.83;12.77;;;1.50;99.90;;;;;;4997839;28;20172;-87
2022/03/22 05:14:28;;;;;;;18.57;13.07;;;1.50;99.90;;;;;;4996749;28;20191;-87
2022/03/22 05:16:58;;;;;;;18.00;12.63;;;1.40;99.90;;;;;;4996638;28;20278;-86
2022/03/22 05:19:25;;;;;;;21.57;13.47;;;1.30;99.90;;;;;;4997468;28;20172;-88
2022/03/22 05:21:51;;;;;;;20.87;13.63;;;1.30;99.90;;;;;;4997480;28;20199;-87
2022/03/22 05:24:18;;;;;;;19.47;13.13;;;1.20;99.90;;;;;;4997077;28;20658;-86
2022/03/22 05:26:45;;;;;;;22.83;13.47;;;1.20;99.90;;;;;;4997606;28;20179;-87
2022/03/22 05:29:13;;;;;;;22.37;13.90;;;1.10;99.90;;;;;;4997315;28;20175;-88
2022/03/22 05:31:39;;;;;;;21.93;14.67;;;1.10;99.90;;;;;;4997313;28;20587;-88
2022/03/22 05:34:05;;;;;;;22.50;13.30;;;1.10;99.90;;;;;;4997794;28;20180;-87
2022/03/22 05:36:31;;;;;;;19.67;12.90;;;1.30;99.90;;;;;;4997503;28;20611;-87
2022/03/22 05:38:57;;;;;;;23.60;13.37;;;1.30;99.90;;;;;;4997069;28;20246;-85
2022/03/22 05:41:23;;;;;;;23.13;13.50;;;1.40;99.90;;;;;;4997152;28;20168;-87
2022/03/22 05:43:48;;;;;;;20.23;13.27;;;1.40;99.90;;;;;;4997045;28;20669;-87
2022/03/22 05:46:16;;;;;;;20.17;13.47;;;1.40;99.90;;;;;;4997208;28;20629;-88
2022/03/22 05:48:48;;;;;;;21.37;13.73;;;1.40;99.90;;;;;;4997182;28;20172;-86
2022/03/22 05:51:16;;;;;;;22.30;12.27;;;1.40;99.90;;;;;;4997492;28;20247;-87
2022/03/22 05:53:43;;;;;;;18.23;12.27;;;1.50;99.90;;;;;;4997052;28;20263;-87
2022/03/22 05:56:09;;;;;;;17.43;12.53;;;1.40;99.90;;;;;;4996956;28;20188;-87
2022/03/22 05:58:35;;;;;;;23.23;12.50;;;1.50;99.90;;;;;;4996962;28;20179;-87
2022/03/22 06:01:00;;;;;;;17.30;13.00;;;1.50;99.90;;;;;;4996900;28;20210;-87
2022/03/22 06:03:26;;;;;;;18.67;12.93;;;1.50;99.90;;;;;;4996625;28;20219;-87
2022/03/22 06:05:52;;;;;;;22.00;13.63;;;1.40;99.90;;;;;;4996649;28;20227;-85
2022/03/22 06:08:19;;;;;;;27.57;14.07;;;1.50;99.90;;;;;;4996718;28;20530;-86
2022/03/22 06:10:46;;;;;;;19.53;13.90;;;1.50;99.90;;;;;;4995156;28;20176;-87
2022/03/22 06:13:11;;;;;;;18.80;13.60;;;1.50;99.90;;;;;;4993342;28;20186;-89
2022/03/22 06:15:38;;;;;;;24.87;13.57;;;1.50;99.90;;;;;;4996191;28;20180;-87
2022/03/22 06:18:06;;;;;;;24.43;14.13;;;1.50;99.90;;;;;;4995003;28;20649;-84
2022/03/22 06:20:44;;;;;;;18.37;13.40;;;1.50;99.90;;;;;;4995520;28;20200;-87
2022/03/22 06:23:11;;;;;;;23.13;13.83;;;1.60;99.90;;;;;;4996122;28;20211;-84
2022/03/22 06:25:38;;;;;;;27.63;13.50;;;1.70;99.90;;;;;;4995713;28;20198;-86
2022/03/22 06:28:06;;;;;;;17.67;13.40;;;1.70;99.90;;;;;;4996225;28;20180;-86
2022/03/22 06:30:34;;;;;;;18.90;13.30;;;1.70;99.90;;;;;;4996228;28;20329;-86
2022/03/22 06:33:07;;;;;;;19.93;13.73;;;1.90;99.90;;;;;;4996561;28;20180;-87
2022/03/22 06:35:33;;;;;;;19.77;13.83;;;2.00;99.90;;;;;;4996169;28;20171;-87
2022/03/22 06:38:02;;;;;;;22.83;14.07;;;2.20;99.90;;;;;;4994685;28;20184;-86
2022/03/22 06:40:29;;;;;;;21.60;13.40;;;2.30;99.90;;;;;;4994603;28;20529;-82
2022/03/22 06:42:58;;;;;;;20.10;12.67;;;2.40;99.90;;;;;;4994941;28;20224;-87
2022/03/22 06:45:25;;;;;;;22.50;15.43;;;2.50;99.90;;;;;;4995814;28;20173;-86
2022/03/22 06:47:51;;;;;;;22.23;14.73;;;2.60;99.90;;;;;;4994676;28;20304;-87
2022/03/22 06:50:18;;;;;;;22.47;13.57;;;2.70;99.90;;;;;;4994877;28;20216;-87
2022/03/22 06:52:45;;;;;;;20.87;13.10;;;2.80;99.90;;;;;;4996501;28;20174;-86
2022/03/22 06:55:13;;;;;;;19.10;13.67;;;2.90;99.90;;;;;;4995639;28;20193;-87
2022/03/22 06:57:39;;;;;;;21.43;13.47;;;3.00;99.90;;;;;;4994702;28;20190;-87
2022/03/22 07:00:11;;;;;;;21.10;13.93;;;3.10;99.90;;;;;;4995716;28;20236;-87
2022/03/22 07:02:41;;;;;;;20.07;13.60;;;3.20;99.90;;;;;;4994196;28;20210;-86
2022/03/22 07:05:08;;;;;;;19.37;13.67;;;3.30;99.90;;;;;;4995399;28;20263;-86
2022/03/22 07:07:35;;;;;;;18.83;13.40;;;3.40;99.90;;;;;;4995367;28;20223;-86
2022/03/22 07:10:01;;;;;;;19.50;13.07;;;3.50;99.90;;;;;;4993900;28;20520;-86
2022/03/22 07:12:27;;;;;;;23.33;14.37;;;3.60;99.90;;;;;;4995399;28;20528;-85
2022/03/22 07:14:53;;;;;;;21.40;14.37;;;3.70;99.90;;;;;;4995679;28;20171;-87
2022/03/22 07:17:19;;;;;;;24.13;14.03;;;3.80;99.90;;;;;;4994244;28;20223;-86
2022/03/22 07:19:45;;;;;;;22.60;15.17;;;3.90;99.90;;;;;;4995202;28;20222;-85
2022/03/22 07:22:10;;;;;;;21.90;14.27;;;4.10;99.90;;;;;;4995130;28;20164;-85
2022/03/22 07:24:36;;;;;;;22.07;14.40;;;4.20;99.90;;;;;;4994725;28;20621;-84
2022/03/22 07:27:04;;;;;;;25.40;14.87;;;4.30;99.90;;;;;;4994053;28;20179;-85
2022/03/22 07:29:30;;;;;;;24.53;15.50;;;4.40;99.90;;;;;;4995241;28;20281;-85
2022/03/22 07:31:57;;;;;;;20.60;13.77;;;4.60;99.90;;;;;;4994602;28;20167;-85
2022/03/22 07:34:24;;;;;;;21.40;14.57;;;4.70;99.90;;;;;;4993786;28;20615;-84
2022/03/22 07:36:53;;;;;;;30.47;14.73;;;4.80;99.90;;;;;;4994731;28;20183;-84
2022/03/22 07:39:23;;;;;;;25.50;14.17;;;4.90;99.90;;;;;;4994404;28;20172;-85
2022/03/22 07:41:49;;;;;;;21.70;14.20;;;5.10;99.90;;;;;;4994738;28;20172;-85
2022/03/22 07:44:15;;;;;;;19.93;13.47;;;5.20;99.90;;;;;;4994481;28;20238;-84
2022/03/22 07:46:44;;;;;;;24.10;13.17;;;5.30;99.90;;;;;;4994642;28;20541;-84
2022/03/22 07:54:39;;;;;;;20.90;14.07;;;5.70;99.90;;;;;;4994935;28;20692;-85
2022/03/22 07:57:07;;;;;;;17.97;12.87;;;5.80;99.90;;;;;;4994644;28;20187;-85
2022/03/22 07:59:33;;;;;;;20.93;12.57;;;5.90;99.90;;;;;;4993671;28;20180;-85
2022/03/22 08:01:58;;;;;;;22.90;14.07;;;6.00;99.90;;;;;;4993439;28;20333;-84
2022/03/22 08:04:24;;;;;;;21.87;13.57;;;6.00;99.90;;;;;;4994639;28;20667;-83
2022/03/22 08:06:50;;;;;;;20.40;13.97;;;6.10;99.90;;;;;;4994458;28;20604;-84
2022/03/22 08:09:15;;;;;;;22.67;13.40;;;6.30;99.90;;;;;;4993301;28;20195;-85
2022/03/22 08:11:42;;;;;;;20.80;13.40;;;6.40;99.90;;;;;;4994278;28;20219;-85
2022/03/22 08:14:08;;;;;;;18.37;12.93;;;6.50;99.90;;;;;;4994897;28;20215;-84
2022/03/22 08:16:36;;;;;;;21.17;12.77;;;6.60;99.90;;;;;;4994618;28;20210;-85
2022/03/22 08:19:05;;;;;;;20.03;12.97;;;6.60;99.90;;;;;;4994565;28;20168;-85
2022/03/22 08:21:32;;;;;;;17.97;13.13;;;6.70;99.90;;;;;;4994482;28;20191;-85
2022/03/22 08:23:58;;;;;;;20.70;12.63;;;6.90;99.90;;;;;;4994296;28;20211;-85
2022/03/22 08:26:24;;;;;;;17.63;13.33;;;7.00;99.90;;;;;;4994130;28;20168;-82
2022/03/22 08:28:50;;;;;;;19.43;12.90;;;7.10;99.90;;;;;;4994466;28;20187;-84
2022/03/22 08:31:16;;;;;;;26.03;12.73;;;7.20;99.90;;;;;;4994608;28;20176;-85
2022/03/22 08:33:41;;;;;;;19.30;12.90;;;7.30;99.70;;;;;;4994689;28;20203;-86
2022/03/22 08:36:07;;;;;;;20.20;12.90;;;7.50;99.90;;;;;;4994619;28;20246;-83
2022/03/22 08:38:33;;;;;;;20.87;12.47;;;7.70;99.90;;;;;;4994481;28;20183;-85
2022/03/22 08:40:59;;;;;;;22.87;13.00;;;7.80;99.80;;;;;;4993903;28;20686;-85
2022/03/22 08:43:25;;;;;;;18.43;12.50;;;7.90;99.70;;;;;;4996547;28;20199;-84
2022/03/22 08:45:52;;;;;;;19.90;13.03;;;8.00;99.90;;;;;;4996475;28;20179;-84
2022/03/22 08:48:18;;;;;;;23.93;14.03;;;8.10;99.90;;;;;;4996452;28;20649;-84
2022/03/22 08:50:51;;;;;;;21.53;14.30;;;8.30;99.90;;;;;;4997772;28;20172;-84
2022/03/22 08:53:19;;;;;;;19.57;13.90;;;8.50;99.90;;;;;;4997911;28;20174;-84
2022/03/22 08:55:48;;;;;;;19.23;13.87;;;8.60;99.90;;;;;;4997453;28;20182;-84
2022/03/22 08:58:14;;;;;;;22.67;14.97;;;8.80;99.90;;;;;;4997733;28;20208;-85
2022/03/22 09:00:40;;;;;;;21.23;14.50;;;9.00;99.50;;;;;;4997624;28;20645;-83
2022/03/22 09:03:08;;;;;;;22.03;13.90;;;9.10;99.90;;;;;;4997587;28;20204;-86
2022/03/22 09:08:18;;;;;;;19.83;14.27;;;9.20;99.90;;;;;;4997780;28;20186;-85
2022/03/22 09:10:46;;;;;;;22.53;14.47;;;9.30;99.40;;;;;;4996100;28;20176;-82
2022/03/22 09:13:12;;;;;;;18.73;13.97;;;9.30;99.20;;;;;;4996170;28;20279;-85
2022/03/22 09:15:39;;;;;;;20.80;14.47;;;9.40;98.20;;;;;;4997303;28;20182;-84
2022/03/22 09:18:12;;;;;;;18.90;13.47;;;9.60;98.50;;;;;;4995942;28;20274;-85
2022/03/22 09:20:38;;;;;;;19.30;13.63;;;9.80;97.10;;;;;;4997391;28;20165;-87
2022/03/22 09:23:04;;;;;;;24.23;13.77;;;10.00;96.10;;;;;;4997422;28;20203;-87
2022/03/22 09:25:30;;;;;;;23.43;14.57;;;10.10;94.40;;;;;;4995640;28;20220;-86
2022/03/22 09:27:56;;;;;;;19.37;13.30;;;10.30;94.20;;;;;;4995932;28;20184;-86
2022/03/22 09:30:22;;;;;;;21.13;13.17;;;10.40;93.40;;;;;;4996137;28;20187;-86
2022/03/22 09:32:48;;;;;;;23.02;13.93;;;10.60;94.00;;;;;;4997187;28;20283;-86
2022/03/22 09:35:19;;;;;;;26.20;14.60;;;10.80;92.40;;;;;;4997254;28;20649;-86
2022/03/22 09:37:46;;;;;;;22.38;13.50;;;10.90;91.30;;;;;;4995942;28;20259;-86
2022/03/22 09:40:13;;;;;;;19.27;13.20;;;10.90;90.40;;;;;;4995685;28;20314;-88
2022/03/22 09:42:42;;;;;;;21.13;13.10;;;11.10;89.80;;;;;;4997244;28;20550;-90
2022/03/22 09:45:09;;;;;;;22.98;14.80;;;11.20;89.70;;;;;;4996992;28;20176;-88
2022/03/22 09:47:36;;;;;;;19.27;14.18;;;11.20;91.50;;;;;;4997095;28;20179;-89
2022/03/22 09:50:06;;;;;;;22.73;13.47;;;11.40;91.20;;;;;;4995914;28;20179;-84
2022/03/22 09:52:32;;;;;;;21.50;13.70;;;11.50;89.10;;;;;;4996563;28;20665;-84
2022/03/22 09:54:58;;;;;;;17.80;13.65;;;11.60;87.40;;;;;;4996460;28;20188;-86
2022/03/22 09:57:23;;;;;;;18.73;13.75;;;11.70;87.80;;;;;;4996615;28;20176;-86
2022/03/22 09:59:49;;;;;;;22.27;14.40;;;11.90;86.80;;;;;;4996803;28;20231;-90
2022/03/22 10:02:15;;;;;;;18.52;13.82;;;12.10;85.40;;;;;;4996762;28;20211;-88
2022/03/22 10:04:43;;;;;;;20.83;13.60;;;12.10;83.20;;;;;;4996780;28;20211;-85
2022/03/22 10:07:20;;;;;;;20.80;13.75;;;12.20;80.50;;;;;;4996244;28;20219;-85
2022/03/22 10:09:54;;;;;;;19.73;13.68;;;12.20;81.00;;;;;;4996278;28;20654;-86
2022/03/22 10:12:34;;;;;;;19.23;13.63;;;12.30;79.10;;;;;;4996199;28;20179;-86
2022/03/22 10:15:32;;;;;;;21.63;14.45;;;12.40;75.30;;;;;;4996793;28;20179;-87
2022/03/22 10:18:06;;;;;;;22.85;14.73;;;12.50;77.40;;;;;;4994954;28;20275;-85
2022/03/22 10:20:37;;;;;;;20.17;13.30;;;12.50;77.00;;;;;;4994773;28;20186;-84
2022/03/22 10:23:05;;;;;;;21.33;13.82;;;12.50;78.50;;;;;;4994793;28;20212;-83
2022/03/22 10:25:32;;;;;;;22.73;14.68;;;12.70;78.40;;;;;;4995694;28;20176;-83
2022/03/22 10:28:00;;;;;;;20.92;14.20;;;12.80;75.50;;;;;;4994850;28;20656;-86
2022/03/22 10:30:26;;;;;;;19.55;14.77;;;12.90;77.10;;;;;;4994865;28;20183;-85
2022/03/22 10:32:52;;;;;;;22.98;14.77;;;12.90;76.70;;;;;;4996171;28;20164;-83
2022/03/22 10:35:27;;;;;;;19.98;14.55;;;13.00;76.70;;;;;;4996299;28;20180;-84
2022/03/22 10:37:59;;;;;;;19.10;14.38;;;13.10;76.00;;;;;;4996198;28;20191;-85
2022/03/22 10:40:27;;;;;;;20.70;15.00;;;13.10;75.50;;;;;;4995742;28;20667;-84
2022/03/22 10:42:58;;;;;;;20.73;14.52;;;13.30;78.70;;;;;;4994764;28;20318;-85
2022/03/22 10:45:26;;;;;;;21.15;14.15;;;13.40;75.70;;;;;;4994589;28;20179;-84
2022/03/22 10:47:51;;;;;;;19.65;14.30;;;13.50;76.60;;;;;;4995457;28;20286;-84
2022/03/22 10:50:18;;;;;;;22.58;14.43;;;13.60;77.20;;;;;;4995691;28;20218;-83
2022/03/22 10:52:52;;;;;;;18.50;14.27;;;13.60;73.80;;;;;;4995712;28;20198;-82
2022/03/22 10:55:22;;;;;;;19.75;14.43;;;13.70;75.20;;;;;;4995706;28;20195;-83
2022/03/22 10:57:50;;;;;;;26.00;15.18;;;13.90;74.70;;;;;;4995936;28;20199;-85
2022/03/22 11:00:17;;;;;;;20.40;14.60;;;13.90;75.50;;;;;;4995691;28;20172;-86
2022/03/22 11:02:46;;;;;;;19.38;15.35;;;13.90;74.60;;;;;;4995357;28;20204;-84
2022/03/22 11:05:14;;;;;;;26.92;15.05;;;14.00;73.70;;;;;;4995155;28;20222;-83
2022/03/22 11:07:40;;;;;;;22.88;15.07;;;14.00;72.90;;;;;;4995160;28;20227;-84
2022/03/22 11:10:06;;;;;;;21.45;15.43;;;14.10;73.10;;;;;;4993854;28;20526;-86
2022/03/22 11:12:33;;;;;;;23.77;15.30;;;14.20;73.60;;;;;;4995279;28;20527;-85
2022/03/22 11:15:00;;;;;;;20.27;15.30;;;14.30;72.30;;;;;;4993714;28;20208;-85
2022/03/22 11:17:28;;;;;;;22.05;14.70;;;14.40;72.60;;;;;;4995282;28;20173;-83
2022/03/22 11:19:58;;;;;;;24.70;15.60;;;14.50;73.20;;;;;;4995246;28;20187;-85
2022/03/22 11:22:24;;;;;;;18.17;14.35;;;14.60;74.60;;;;;;4994879;28;20212;-82
2022/03/22 11:24:51;;;;;;;18.58;14.32;;;14.70;71.90;;;;;;4995246;28;20530;-82
2022/03/22 11:27:28;;;;;;;23.77;14.95;;;14.80;72.10;;;;;;4994706;28;20182;-83
2022/03/22 11:29:54;;;;;;;23.10;14.70;;;14.80;69.30;;;;;;4995015;28;20176;-84
2022/03/22 11:35:13;;;;;;;23.65;14.77;;;15.00;70.90;;;;;;4995031;28;20560;-83
2022/03/22 11:37:40;;;;;;;20.58;14.95;;;15.00;67.00;;;;;;4994646;28;20183;-83
2022/03/22 11:43:01;;;;;;;21.88;14.82;;;15.30;67.00;;;;;;4995001;28;20611;-83
2022/03/22 11:45:27;;;;;;;19.25;14.65;;;15.50;67.30;;;;;;4993588;28;20176;-86
2022/03/22 11:47:54;;;;;;;21.77;14.75;;;15.60;65.30;;;;;;4993905;28;20206;-84
2022/03/22 11:50:22;;;;;;;20.25;14.32;;;15.50;63.60;;;;;;4995067;28;20176;-85
2022/03/22 11:52:54;;;;;;;19.45;14.75;;;15.50;64.40;;;;;;4995098;28;20211;-84
2022/03/22 11:55:25;;;;;;;24.48;15.18;;;15.60;64.00;;;;;;4994653;28;20218;-84
2022/03/22 11:58:00;;;;;;;19.80;13.38;;;15.60;62.30;;;;;;4994903;28;20210;-85
2022/03/22 12:01:03;;;;;;;19.15;14.25;;;15.80;63.70;;;;;;4994980;28;20183;-83
2022/03/22 12:03:38;;;;;;;17.75;14.02;;;16.00;62.00;;;;;;4994562;28;20721;-86
2022/03/22 12:06:11;;;;;;;20.92;14.50;;;16.20;61.30;;;;;;4994856;28;20266;-85
2022/03/22 12:08:37;;;;;;;19.23;13.13;;;16.30;59.60;;;;;;4993722;28;20187;-85
2022/03/22 12:11:03;;;;;;;19.15;11.82;;;16.30;61.60;;;;;;4993097;28;20199;-84
2022/03/22 12:13:30;;;;;;;15.98;12.15;;;16.30;58.80;;;;;;4994458;28;20176;-83
2022/03/22 12:15:57;;;;;;;20.15;12.73;;;16.30;56.50;;;;;;4993185;28;20218;-84
2022/03/22 12:18:28;;;;;;;18.80;12.13;;;16.30;56.70;;;;;;4995387;28;20530;-82
2022/03/22 12:20:56;;;;;;;16.08;11.48;;;16.40;56.60;;;;;;4998428;28;20164;-84
2022/03/22 12:23:22;;;;;;;17.23;12.80;;;16.40;53.70;;;;;;4998147;28;20247;-83
2022/03/22 12:25:48;;;;;;;20.05;14.00;;;16.50;54.00;;;;;;4997911;28;20508;-83
2022/03/22 12:28:16;;;;;;;22.30;13.35;;;16.50;55.90;;;;;;4998070;28;20259;-84
2022/03/22 12:30:43;;;;;;;17.63;12.70;;;16.60;54.60;;;;;;4998329;28;20168;-85
2022/03/22 12:33:11;;;;;;;19.10;13.27;;;16.40;58.30;;;;;;4998302;28;20212;-84
2022/03/22 12:35:38;;;;;;;15.75;12.82;;;16.50;58.20;;;;;;4998404;28;20175;-83
2022/03/22 12:38:04;;;;;;;19.05;13.35;;;16.50;57.90;;;;;;4996729;28;20184;-84
2022/03/22 12:40:31;;;;;;;24.83;13.93;;;16.60;56.60;;;;;;4997551;28;20623;-83
2022/03/22 12:42:58;;;;;;;23.52;13.82;;;16.70;58.10;;;;;;4998045;28;20203;-83
2022/03/22 12:45:25;;;;;;;17.35;12.93;;;16.80;56.20;;;;;;4997890;28;20210;-83
2022/03/22 12:47:52;;;;;;;20.60;13.95;;;16.70;54.10;;;;;;4997567;28;20599;-82
2022/03/22 12:50:20;;;;;;;17.48;13.73;;;16.90;56.00;;;;;;4997885;28;20634;-83
2022/03/22 12:52:46;;;;;;;16.75;11.93;;;16.90;54.50;;;;;;4997697;28;20172;-83
2022/03/22 12:55:13;;;;;;;20.20;14.68;;;17.10;55.00;;;;;;4996433;28;20176;-83
2022/03/22 12:57:46;;;;;;;22.30;13.38;;;17.20;52.40;;;;;;4996347;28;20645;-82
2022/03/22 13:00:23;;;;;;;16.05;13.10;;;17.10;53.10;;;;;;4997554;28;20156;-84
2022/03/22 13:02:49;;;;;;;19.40;13.20;;;17.00;53.60;;;;;;4997473;28;20202;-83
2022/03/22 13:05:22;;;;;;;17.17;12.88;;;17.10;53.80;;;;;;4997710;28;20168;-85
2022/03/22 13:07:48;;;;;;;19.27;13.00;;;17.10;53.10;;;;;;4997324;28;20326;-84
2022/03/22 13:12:58;;;;;;;15.10;10.85;;;17.50;55.20;;;;;;4997434;28;20215;-82